createdAt,value
2019-02-17T00:00:37.013Z,1013.61
2019-02-17T00:01:37.028Z,1013.59
2019-02-17T00:02:37.001Z,1013.59
2019-02-17T00:03:37.021Z,1013.62
2019-02-17T00:04:36.966Z,1013.61
2019-02-17T00:05:36.956Z,1013.60
2019-02-17T00:06:36.947Z,1013.57
2019-02-17T00:07:36.920Z,1013.56
2019-02-17T00:08:36.961Z,1013.57
2019-02-17T00:09:36.908Z,1013.55
2019-02-17T00:10:36.904Z,1013.54
2019-02-17T00:11:36.896Z,1013.53
2019-02-17T00:12:36.897Z,1013.51
2019-02-17T00:13:36.873Z,1013.54
2019-02-17T00:14:36.850Z,1013.51
2019-02-17T00:15:36.848Z,1013.51
2019-02-17T00:16:36.826Z,1013.48
2019-02-17T00:17:36.817Z,1013.51
2019-02-17T00:18:36.830Z,1013.51
2019-02-17T00:19:36.795Z,1013.47
2019-02-17T00:20:36.780Z,1013.56
2019-02-17T00:21:36.773Z,1013.55
2019-02-17T00:22:36.759Z,1013.47
2019-02-17T00:23:36.758Z,1013.48
2019-02-17T00:24:36.755Z,1013.45
2019-02-17T00:25:36.765Z,1013.48
2019-02-17T00:26:36.744Z,1013.41
2019-02-17T00:27:36.718Z,1013.42
2019-02-17T00:28:36.707Z,1013.43
2019-02-17T00:29:36.683Z,1013.44
2019-02-17T00:30:36.705Z,1013.44
2019-02-17T00:31:36.667Z,1013.43
2019-02-17T00:32:36.648Z,1013.41
2019-02-17T00:33:36.664Z,1013.45
2019-02-17T00:34:36.648Z,1013.46
2019-02-17T00:35:36.643Z,1013.43
2019-02-17T00:36:36.634Z,1013.47
2019-02-17T00:37:36.593Z,1013.45
2019-02-17T00:38:36.603Z,1013.50
2019-02-17T00:39:36.592Z,1013.49
2019-02-17T00:40:36.592Z,1013.50
2019-02-17T00:41:36.573Z,1013.50
2019-02-17T00:42:36.567Z,1013.49
2019-02-17T00:43:36.551Z,1013.52
2019-02-17T00:44:36.515Z,1013.48
2019-02-17T00:45:36.538Z,1013.49
2019-02-17T00:46:36.546Z,1013.48
2019-02-17T00:47:36.507Z,1013.49
2019-02-17T00:48:36.464Z,1013.50
2019-02-17T00:49:36.471Z,1013.46
2019-02-17T00:50:36.469Z,1013.47
2019-02-17T00:51:36.435Z,1013.49
2019-02-17T00:52:36.447Z,1013.46
2019-02-17T00:53:36.425Z,1013.43
2019-02-17T00:54:36.441Z,1013.46
2019-02-17T00:55:36.404Z,1013.46
2019-02-17T00:56:36.399Z,1013.50
2019-02-17T00:57:36.377Z,1013.48
2019-02-17T00:58:36.379Z,1013.45
2019-02-17T00:59:36.358Z,1013.41
2019-02-17T01:00:36.329Z,1013.42
2019-02-17T01:01:36.324Z,1013.43
2019-02-17T01:02:36.337Z,1013.43
2019-02-17T01:03:36.328Z,1013.44
2019-02-17T01:04:36.281Z,1013.42
2019-02-17T01:05:36.284Z,1013.43
2019-02-17T01:06:36.273Z,1013.40
2019-02-17T01:07:36.264Z,1013.42
2019-02-17T01:08:36.260Z,1013.45
2019-02-17T01:09:36.267Z,1013.49
2019-02-17T01:10:36.224Z,1013.47
2019-02-17T01:11:36.218Z,1013.44
2019-02-17T01:12:36.196Z,1013.46
2019-02-17T01:13:36.207Z,1013.44
2019-02-17T01:14:36.208Z,1013.47
2019-02-17T01:15:36.205Z,1013.46
2019-02-17T01:16:36.160Z,1013.48
2019-02-17T01:17:36.133Z,1013.46
2019-02-17T01:18:36.158Z,1013.49
2019-02-17T01:19:36.253Z,1013.48
2019-02-17T01:20:36.109Z,1013.50
2019-02-17T01:21:36.111Z,1013.47
2019-02-17T01:22:36.076Z,1013.54
2019-02-17T01:23:36.097Z,1013.51
2019-02-17T01:24:36.136Z,1013.49
2019-02-17T01:25:36.093Z,1013.49
2019-02-17T01:26:36.025Z,1013.48
2019-02-17T01:27:36.056Z,1013.49
2019-02-17T01:28:36.011Z,1013.46
2019-02-17T01:29:36.015Z,1013.48
2019-02-17T01:30:36.033Z,1013.48
2019-02-17T01:31:35.977Z,1013.43
2019-02-17T01:32:35.954Z,1013.46
2019-02-17T01:33:35.941Z,1013.39
2019-02-17T01:34:35.930Z,1013.42
2019-02-17T01:35:35.942Z,1013.38
2019-02-17T01:36:35.914Z,1013.39
2019-02-17T01:37:35.894Z,1013.39
2019-02-17T01:38:35.881Z,1013.41
2019-02-17T01:39:35.892Z,1013.41
2019-02-17T01:40:35.857Z,1013.38
2019-02-17T01:41:35.848Z,1013.40
2019-02-17T01:42:35.868Z,1013.41
2019-02-17T01:43:35.857Z,1013.40
2019-02-17T01:44:35.817Z,1013.39
2019-02-17T01:45:35.794Z,1013.38
2019-02-17T01:46:35.797Z,1013.41
2019-02-17T01:47:35.784Z,1013.38
2019-02-17T01:48:35.768Z,1013.38
2019-02-17T01:49:35.749Z,1013.34
2019-02-17T01:50:35.747Z,1013.39
2019-02-17T01:51:44.476Z,1013.34
2019-02-17T01:53:39.937Z,1013.28
2019-02-17T01:54:39.869Z,1013.29
2019-02-17T01:55:39.843Z,1013.31
2019-02-17T01:56:39.850Z,1013.32
2019-02-17T01:57:48.500Z,1013.33
2019-02-17T01:59:44.313Z,1013.28
2019-02-17T02:00:44.267Z,1013.26
2019-02-17T02:01:44.266Z,1013.25
2019-02-17T02:02:44.255Z,1013.25
2019-02-17T02:03:44.228Z,1013.23
2019-02-17T02:04:44.214Z,1013.25
2019-02-17T02:05:44.215Z,1013.23
2019-02-17T02:06:44.217Z,1013.21
2019-02-17T02:07:44.184Z,1013.18
2019-02-17T02:08:44.192Z,1013.17
2019-02-17T02:09:44.168Z,1013.20
2019-02-17T02:10:44.158Z,1013.17
2019-02-17T02:11:44.148Z,1013.16
2019-02-17T02:12:44.150Z,1013.20
2019-02-17T02:13:44.146Z,1013.18
2019-02-17T02:14:44.094Z,1013.19
2019-02-17T02:15:44.084Z,1013.14
2019-02-17T02:16:44.071Z,1013.17
2019-02-17T02:17:44.064Z,1013.14
2019-02-17T02:18:44.096Z,1013.12
2019-02-17T02:19:44.038Z,1013.12
2019-02-17T02:20:44.023Z,1013.15
2019-02-17T02:21:44.023Z,1013.11
2019-02-17T02:22:44.013Z,1013.10
2019-02-17T02:23:43.978Z,1013.09
2019-02-17T02:24:44.140Z,1013.10
2019-02-17T02:25:43.953Z,1013.11
2019-02-17T02:26:43.950Z,1013.10
2019-02-17T02:27:43.953Z,1013.08
2019-02-17T02:28:43.965Z,1013.13
2019-02-17T02:29:43.906Z,1013.11
2019-02-17T02:30:43.918Z,1013.14
2019-02-17T02:31:43.951Z,1013.14
2019-02-17T02:32:43.897Z,1013.10
2019-02-17T02:33:43.858Z,1013.13
2019-02-17T02:34:43.844Z,1013.11
2019-02-17T02:35:43.831Z,1013.10
2019-02-17T02:36:43.840Z,1013.15
2019-02-17T02:37:43.823Z,1013.13
2019-02-17T02:38:43.832Z,1013.14
2019-02-17T02:39:43.824Z,1013.13
2019-02-17T02:40:43.831Z,1013.16
2019-02-17T02:41:43.758Z,1013.16
2019-02-17T02:42:43.757Z,1013.15
2019-02-17T02:43:43.990Z,1013.12
2019-02-17T02:44:43.724Z,1013.14
2019-02-17T02:45:43.752Z,1013.15
2019-02-17T02:46:43.723Z,1013.14
2019-02-17T02:47:43.709Z,1013.15
2019-02-17T02:48:43.690Z,1013.15
2019-02-17T02:49:43.663Z,1013.13
2019-02-17T02:50:43.661Z,1013.12
2019-02-17T02:51:43.644Z,1013.15
2019-02-17T02:52:43.638Z,1013.16
2019-02-17T02:53:43.639Z,1013.12
2019-02-17T02:54:43.639Z,1013.11
2019-02-17T03:13:44.240Z,1013.10
2019-02-17T03:14:44.261Z,1013.08
2019-02-17T03:15:44.206Z,1013.15
2019-02-17T03:16:44.197Z,1013.10
2019-02-17T03:17:44.155Z,1013.13
2019-02-17T03:18:44.161Z,1013.08
2019-02-17T03:19:44.116Z,1013.09
2019-02-17T03:20:44.116Z,1013.09
2019-02-17T03:21:44.087Z,1013.08
2019-02-17T03:22:44.245Z,1013.10
2019-02-17T03:23:44.084Z,1013.05
2019-02-17T03:24:44.047Z,1013.09
2019-02-17T03:25:45.418Z,1013.09
2019-02-17T03:26:44.015Z,1013.09
2019-02-17T03:27:44.151Z,1013.07
2019-02-17T03:28:44.053Z,1013.09
2019-02-17T03:29:43.980Z,1013.06
2019-02-17T03:30:43.963Z,1013.09
2019-02-17T03:31:43.948Z,1013.05
2019-02-17T03:32:43.963Z,1013.08
2019-02-17T03:33:43.973Z,1013.03
2019-02-17T03:34:43.942Z,1013.09
2019-02-17T03:35:44.564Z,1013.06
2019-02-17T03:36:43.910Z,1013.04
2019-02-17T03:37:43.892Z,1013.06
2019-02-17T03:38:43.880Z,1013.05
2019-02-17T03:39:43.879Z,1013.05
2019-02-17T03:40:43.841Z,1013.05
2019-02-17T03:41:43.834Z,1013.07
2019-02-17T03:42:43.854Z,1013.06
2019-02-17T03:43:43.836Z,1013.10
2019-02-17T03:44:44.692Z,1013.07
2019-02-17T03:45:43.826Z,1013.05
2019-02-17T03:46:43.794Z,1013.04
2019-02-17T03:47:43.751Z,1013.04
2019-02-17T03:48:43.762Z,1013.06
2019-02-17T03:49:43.740Z,1013.08
2019-02-17T03:50:43.744Z,1013.07
2019-02-17T03:51:43.728Z,1013.07
2019-02-17T03:52:43.735Z,1013.09
2019-02-17T03:53:43.700Z,1013.02
2019-02-17T03:54:43.676Z,1013.09
2019-02-17T03:55:43.651Z,1013.04
2019-02-17T03:56:43.685Z,1013.03
2019-02-17T03:57:43.628Z,1013.05
2019-02-17T03:58:43.612Z,1013.02
2019-02-17T03:59:43.634Z,1013.02
2019-02-17T04:00:43.584Z,1012.99
2019-02-17T04:01:43.638Z,1012.99
2019-02-17T04:02:43.562Z,1013.02
2019-02-17T04:03:43.548Z,1013.01
2019-02-17T04:04:43.537Z,1013.02
2019-02-17T04:05:43.560Z,1013.01
2019-02-17T04:06:43.546Z,1013.04
2019-02-17T04:07:43.494Z,1013.05
2019-02-17T04:08:43.515Z,1013.05
2019-02-17T04:09:43.476Z,1013.04
2019-02-17T04:10:43.474Z,1013.02
2019-02-17T04:11:43.461Z,1013.01
2019-02-17T04:12:43.426Z,1013.05
2019-02-17T04:13:43.458Z,1013.02
2019-02-17T04:14:43.449Z,1013.02
2019-02-17T04:15:43.421Z,1013.03
2019-02-17T04:16:43.384Z,1012.98
2019-02-17T04:17:43.373Z,1013.01
2019-02-17T04:18:43.447Z,1013.01
2019-02-17T04:19:43.349Z,1012.98
2019-02-17T04:20:43.334Z,1012.98
2019-02-17T04:21:43.354Z,1012.97
2019-02-17T04:22:43.326Z,1012.98
2019-02-17T04:23:43.295Z,1013.01
2019-02-17T04:24:43.282Z,1012.98
2019-02-17T04:25:43.304Z,1012.95
2019-02-17T04:26:43.299Z,1012.99
2019-02-17T04:27:43.262Z,1012.98
2019-02-17T04:28:43.263Z,1013.02
2019-02-17T04:29:43.225Z,1012.99
2019-02-17T04:30:43.224Z,1012.98
2019-02-17T04:31:43.186Z,1013.01
2019-02-17T04:32:43.189Z,1013.03
2019-02-17T04:33:43.182Z,1013.02
2019-02-17T04:34:43.212Z,1013.01
2019-02-17T04:35:43.160Z,1013.01
2019-02-17T04:36:43.154Z,1013.02
2019-02-17T04:37:43.119Z,1013.01
2019-02-17T04:38:43.123Z,1013.01
2019-02-17T04:39:43.107Z,1013.01
2019-02-17T04:40:43.096Z,1012.97
2019-02-17T04:41:43.066Z,1012.97
2019-02-17T04:42:43.058Z,1012.94
2019-02-17T04:43:43.045Z,1012.95
2019-02-17T04:44:43.030Z,1012.92
2019-02-17T04:45:43.012Z,1012.90
2019-02-17T04:46:43.047Z,1012.91
2019-02-17T04:47:43.021Z,1012.97
2019-02-17T04:48:42.980Z,1012.94
2019-02-17T04:49:43.023Z,1012.94
2019-02-17T04:50:43.069Z,1012.97
2019-02-17T04:51:42.933Z,1012.95
2019-02-17T04:52:42.940Z,1012.95
2019-02-17T04:53:42.991Z,1012.98
2019-02-17T04:54:42.926Z,1013.00
2019-02-17T04:55:42.877Z,1012.99
2019-02-17T04:56:42.870Z,1013.01
2019-02-17T04:57:42.891Z,1013.02
2019-02-17T04:58:42.860Z,1013.02
2019-02-17T04:59:42.917Z,1013.05
2019-02-17T05:00:42.816Z,1013.06
2019-02-17T05:01:42.805Z,1013.05
2019-02-17T05:02:42.810Z,1013.03
2019-02-17T05:03:42.783Z,1013.00
2019-02-17T05:04:42.786Z,1012.97
2019-02-17T05:05:42.754Z,1012.96
2019-02-17T05:06:42.755Z,1012.98
2019-02-17T05:07:42.744Z,1012.99
2019-02-17T05:08:42.723Z,1013.01
2019-02-17T05:09:42.695Z,1013.05
2019-02-17T05:10:42.729Z,1013.06
2019-02-17T05:11:42.669Z,1013.08
2019-02-17T05:12:42.667Z,1013.06
2019-02-17T05:13:42.666Z,1013.07
2019-02-17T05:14:42.634Z,1013.06
2019-02-17T05:15:42.620Z,1013.10
2019-02-17T05:16:42.603Z,1013.08
2019-02-17T05:17:42.612Z,1013.10
2019-02-17T05:18:42.588Z,1013.07
2019-02-17T05:19:42.591Z,1013.04
2019-02-17T05:20:42.561Z,1013.08
2019-02-17T05:21:42.546Z,1013.07
2019-02-17T05:22:42.542Z,1013.07
2019-02-17T05:23:42.524Z,1013.06
2019-02-17T05:24:42.534Z,1013.05
2019-02-17T05:25:42.485Z,1013.08
2019-02-17T05:26:42.482Z,1013.06
2019-02-17T05:27:42.464Z,1013.06
2019-02-17T05:28:42.486Z,1013.07
2019-02-17T05:29:42.440Z,1013.08
2019-02-17T05:30:52.375Z,1013.11
2019-02-17T05:31:42.471Z,1013.14
2019-02-17T05:32:42.400Z,1013.14
2019-02-17T05:33:42.387Z,1013.19
2019-02-17T05:34:42.377Z,1013.15
2019-02-17T05:35:42.421Z,1013.19
2019-02-17T05:36:42.356Z,1013.17
2019-02-17T05:37:42.338Z,1013.15
2019-02-17T05:38:42.346Z,1013.16
2019-02-17T05:39:42.334Z,1013.12
2019-02-17T05:40:42.298Z,1013.13
2019-02-17T05:41:42.282Z,1013.13
2019-02-17T05:42:42.279Z,1013.13
2019-02-17T05:43:42.291Z,1013.09
2019-02-17T05:44:42.286Z,1013.06
2019-02-17T05:45:42.231Z,1013.07
2019-02-17T05:46:42.216Z,1013.07
2019-02-17T05:47:42.224Z,1013.09
2019-02-17T05:48:42.195Z,1013.10
2019-02-17T05:49:42.211Z,1013.09
2019-02-17T05:50:42.165Z,1013.09
2019-02-17T05:51:42.168Z,1013.09
2019-02-17T05:52:42.146Z,1013.09
2019-02-17T05:53:42.161Z,1013.09
2019-02-17T05:54:42.129Z,1013.09
2019-02-17T05:55:42.118Z,1013.07
2019-02-17T05:56:42.090Z,1013.09
2019-02-17T05:57:42.082Z,1013.09
2019-02-17T05:58:42.060Z,1013.09
2019-02-17T05:59:42.060Z,1013.07
2019-02-17T06:00:42.079Z,1013.07
2019-02-17T06:01:42.026Z,1013.07
2019-02-17T06:02:42.025Z,1013.10
2019-02-17T06:03:41.992Z,1013.10
2019-02-17T06:04:42.006Z,1013.08
2019-02-17T06:05:41.993Z,1013.10
2019-02-17T06:06:41.953Z,1013.13
2019-02-17T06:07:41.965Z,1013.17
2019-02-17T06:08:41.942Z,1013.16
2019-02-17T06:09:41.924Z,1013.15
2019-02-17T06:10:41.895Z,1013.17
2019-02-17T06:11:41.912Z,1013.14
2019-02-17T06:12:41.876Z,1013.12
2019-02-17T06:13:41.862Z,1013.16
2019-02-17T06:14:41.852Z,1013.14
2019-02-17T06:15:41.844Z,1013.14
2019-02-17T06:16:41.843Z,1013.17
2019-02-17T06:17:41.811Z,1013.17
2019-02-17T06:18:41.825Z,1013.17
2019-02-17T06:19:41.806Z,1013.17
2019-02-17T06:20:41.809Z,1013.19
2019-02-17T06:21:41.753Z,1013.16
2019-02-17T06:22:41.752Z,1013.20
2019-02-17T06:23:41.746Z,1013.22
2019-02-17T06:24:41.721Z,1013.21
2019-02-17T06:25:41.720Z,1013.24
2019-02-17T06:26:41.782Z,1013.22
2019-02-17T06:27:41.673Z,1013.22
2019-02-17T06:28:41.679Z,1013.23
2019-02-17T06:29:41.652Z,1013.24
2019-02-17T06:30:41.672Z,1013.29
2019-02-17T06:31:41.663Z,1013.32
2019-02-17T06:32:41.676Z,1013.33
2019-02-17T06:33:41.594Z,1013.33
2019-02-17T06:34:41.594Z,1013.36
2019-02-17T06:35:41.599Z,1013.35
2019-02-17T06:36:41.565Z,1013.34
2019-02-17T06:37:41.540Z,1013.34
2019-02-17T06:38:41.517Z,1013.34
2019-02-17T06:39:41.552Z,1013.36
2019-02-17T06:40:41.615Z,1013.35
2019-02-17T06:41:41.551Z,1013.36
2019-02-17T06:42:41.508Z,1013.38
2019-02-17T06:43:41.460Z,1013.38
2019-02-17T06:44:41.475Z,1013.38
2019-02-17T06:45:41.427Z,1013.34
2019-02-17T06:46:41.471Z,1013.35
2019-02-17T06:47:41.426Z,1013.34
2019-02-17T06:48:41.391Z,1013.34
2019-02-17T06:49:41.374Z,1013.38
2019-02-17T06:50:50.047Z,1013.40
2019-02-17T06:52:46.721Z,1013.40
2019-02-17T06:53:46.673Z,1013.39
2019-02-17T06:54:46.673Z,1013.42
2019-02-17T06:55:46.646Z,1013.39
2019-02-17T06:56:46.638Z,1013.40
2019-02-17T06:57:46.614Z,1013.41
2019-02-17T06:58:46.632Z,1013.41
2019-02-17T06:59:46.613Z,1013.44
2019-02-17T07:00:46.600Z,1013.41
2019-02-17T07:01:46.561Z,1013.44
2019-02-17T07:02:46.546Z,1013.47
2019-02-17T07:03:46.559Z,1013.45
2019-02-17T07:04:46.541Z,1013.43
2019-02-17T07:05:46.513Z,1013.46
2019-02-17T07:06:46.499Z,1013.46
2019-02-17T07:07:46.488Z,1013.49
2019-02-17T07:08:46.530Z,1013.47
2019-02-17T07:09:46.478Z,1013.46
2019-02-17T07:10:46.449Z,1013.47
2019-02-17T07:11:46.446Z,1013.45
2019-02-17T07:12:46.422Z,1013.45
2019-02-17T07:13:46.447Z,1013.46
2019-02-17T07:14:46.392Z,1013.45
2019-02-17T07:15:46.387Z,1013.45
2019-02-17T07:16:46.378Z,1013.41
2019-02-17T07:17:46.359Z,1013.44
2019-02-17T07:18:46.359Z,1013.42
2019-02-17T07:19:46.324Z,1013.43
2019-02-17T07:20:46.322Z,1013.45
2019-02-17T07:21:46.306Z,1013.43
2019-02-17T07:22:46.286Z,1013.46
2019-02-17T07:23:46.279Z,1013.45
2019-02-17T07:24:46.293Z,1013.45
2019-02-17T07:25:46.260Z,1013.45
2019-02-17T07:26:46.277Z,1013.46
2019-02-17T07:27:46.226Z,1013.48
2019-02-17T07:28:46.235Z,1013.47
2019-02-17T07:29:46.202Z,1013.48
2019-02-17T07:30:46.192Z,1013.50
2019-02-17T07:31:46.169Z,1013.42
2019-02-17T07:32:46.158Z,1013.40
2019-02-17T07:33:46.154Z,1013.42
2019-02-17T07:34:46.153Z,1013.45
2019-02-17T07:35:46.119Z,1013.38
2019-02-17T07:36:46.114Z,1013.37
2019-02-17T07:37:46.104Z,1013.41
2019-02-17T07:38:46.077Z,1013.41
2019-02-17T07:39:46.104Z,1013.40
2019-02-17T07:40:46.081Z,1013.40
2019-02-17T07:41:46.042Z,1013.40
2019-02-17T07:42:46.067Z,1013.39
2019-02-17T07:43:46.047Z,1013.37
2019-02-17T07:44:46.098Z,1013.34
2019-02-17T07:45:46.011Z,1013.34
2019-02-17T07:46:46.027Z,1013.37
2019-02-17T07:47:46.001Z,1013.34
2019-02-17T07:48:45.964Z,1013.39
2019-02-17T07:49:45.948Z,1013.32
2019-02-17T07:50:45.934Z,1013.31
2019-02-17T07:51:45.954Z,1013.33
2019-02-17T07:52:45.902Z,1013.31
2019-02-17T07:53:45.909Z,1013.25
2019-02-17T07:54:45.902Z,1013.27
2019-02-17T07:55:45.887Z,1013.26
2019-02-17T07:56:45.857Z,1013.27
2019-02-17T07:57:45.841Z,1013.29
2019-02-17T07:58:45.841Z,1013.27
2019-02-17T07:59:45.823Z,1013.25
2019-02-17T08:00:45.832Z,1013.27
2019-02-17T08:01:45.824Z,1013.27
2019-02-17T08:02:45.815Z,1013.27
2019-02-17T08:03:45.801Z,1013.27
2019-02-17T08:04:45.804Z,1013.26
2019-02-17T08:05:45.758Z,1013.26
2019-02-17T08:06:45.762Z,1013.27
2019-02-17T08:07:45.751Z,1013.22
2019-02-17T08:08:45.755Z,1013.24
2019-02-17T08:09:45.694Z,1013.21
2019-02-17T08:10:45.683Z,1013.23
2019-02-17T08:11:45.753Z,1013.23
2019-02-17T08:12:45.717Z,1013.19
2019-02-17T08:13:45.711Z,1013.21
2019-02-17T08:14:45.803Z,1013.20
2019-02-17T08:15:45.830Z,1013.18
2019-02-17T08:16:45.779Z,1013.18
2019-02-17T08:17:45.601Z,1013.12
2019-02-17T08:18:45.635Z,1013.15
2019-02-17T08:19:45.616Z,1013.15
2019-02-17T08:20:45.613Z,1013.14
2019-02-17T08:21:45.599Z,1013.10
2019-02-17T08:22:45.546Z,1013.11
2019-02-17T08:23:45.553Z,1013.12
2019-02-17T08:24:45.532Z,1013.15
2019-02-17T08:25:45.534Z,1013.10
2019-02-17T08:26:45.500Z,1013.11
2019-02-17T08:27:45.505Z,1013.10
2019-02-17T08:28:45.481Z,1013.10
2019-02-17T08:29:45.476Z,1013.11
2019-02-17T08:30:45.478Z,1013.13
2019-02-17T08:31:54.852Z,1013.14
2019-02-17T08:32:45.436Z,1013.14
2019-02-17T08:33:45.420Z,1013.16
2019-02-17T08:34:45.416Z,1013.16
2019-02-17T08:35:45.443Z,1013.15
2019-02-17T08:36:45.427Z,1013.17
2019-02-17T08:37:45.401Z,1013.15
2019-02-17T08:38:45.412Z,1013.19
2019-02-17T08:39:45.386Z,1013.18
2019-02-17T08:40:45.366Z,1013.16
2019-02-17T08:41:45.333Z,1013.19
2019-02-17T08:42:45.343Z,1013.21
2019-02-17T08:43:45.311Z,1013.20
2019-02-17T08:44:45.308Z,1013.17
2019-02-17T08:45:45.297Z,1013.17
2019-02-17T08:46:45.313Z,1013.16
2019-02-17T08:47:45.274Z,1013.17
2019-02-17T08:48:45.276Z,1013.14
2019-02-17T08:49:45.268Z,1013.14
2019-02-17T08:50:45.247Z,1013.13
2019-02-17T08:51:45.234Z,1013.11
2019-02-17T08:52:45.217Z,1013.15
2019-02-17T08:53:45.208Z,1013.13
2019-02-17T08:54:45.243Z,1013.11
2019-02-17T08:55:45.225Z,1013.14
2019-02-17T08:56:45.175Z,1013.14
2019-02-17T08:57:45.195Z,1013.13
2019-02-17T08:58:45.162Z,1013.14
2019-02-17T08:59:45.161Z,1013.16
2019-02-17T09:00:45.137Z,1013.17
2019-02-17T09:01:45.124Z,1013.13
2019-02-17T09:02:45.161Z,1013.12
2019-02-17T09:03:45.123Z,1013.17
2019-02-17T09:04:45.132Z,1013.19
2019-02-17T09:05:45.100Z,1013.14
2019-02-17T09:06:45.075Z,1013.12
2019-02-17T09:07:45.064Z,1013.12
2019-02-17T09:08:45.053Z,1013.15
2019-02-17T09:09:45.066Z,1013.17
2019-02-17T09:10:45.046Z,1013.11
2019-02-17T09:11:45.037Z,1013.10
2019-02-17T09:12:45.011Z,1013.11
2019-02-17T09:13:45.053Z,1013.10
2019-02-17T09:14:45.026Z,1013.12
2019-02-17T09:15:44.992Z,1013.10
2019-02-17T09:16:44.978Z,1013.09
2019-02-17T09:17:45.004Z,1013.10
2019-02-17T09:18:44.990Z,1013.07
2019-02-17T09:19:44.945Z,1013.14
2019-02-17T09:20:44.949Z,1013.06
2019-02-17T09:21:44.924Z,1013.08
2019-02-17T09:22:44.917Z,1013.10
2019-02-17T09:23:44.930Z,1013.11
2019-02-17T09:24:44.902Z,1013.11
2019-02-17T09:25:44.932Z,1013.09
2019-02-17T09:26:44.890Z,1013.09
2019-02-17T09:27:44.869Z,1013.10
2019-02-17T09:28:44.870Z,1013.08
2019-02-17T09:29:44.888Z,1013.13
2019-02-17T09:30:44.859Z,1013.08
2019-02-17T09:31:44.868Z,1013.09
2019-02-17T09:32:44.831Z,1013.07
2019-02-17T09:33:44.808Z,1013.08
2019-02-17T09:34:44.800Z,1013.07
2019-02-17T09:35:44.800Z,1013.08
2019-02-17T09:36:44.805Z,1013.07
2019-02-17T09:37:44.775Z,1013.09
2019-02-17T09:38:44.761Z,1013.09
2019-02-17T09:39:44.774Z,1013.05
2019-02-17T09:40:44.743Z,1013.08
2019-02-17T09:41:44.758Z,1013.06
2019-02-17T09:42:44.755Z,1013.09
2019-02-17T09:43:45.716Z,1013.05
2019-02-17T09:44:44.721Z,1013.08
2019-02-17T09:45:44.709Z,1013.03
2019-02-17T09:46:44.690Z,1013.07
2019-02-17T09:47:44.715Z,1013.06
2019-02-17T09:48:44.680Z,1013.09
2019-02-17T09:49:44.683Z,1013.08
2019-02-17T09:50:44.666Z,1013.08
2019-02-17T09:51:44.686Z,1013.08
2019-02-17T09:52:44.660Z,1013.07
2019-02-17T09:53:44.643Z,1013.08
2019-02-17T09:54:44.648Z,1013.11
2019-02-17T09:55:44.620Z,1013.06
2019-02-17T09:56:44.632Z,1013.06
2019-02-17T09:57:44.616Z,1013.07
2019-02-17T09:58:44.589Z,1013.03
2019-02-17T09:59:44.599Z,1013.07
2019-02-17T10:00:44.594Z,1013.03
2019-02-17T10:01:44.587Z,1013.05
2019-02-17T10:02:44.555Z,1013.02
2019-02-17T10:03:44.567Z,1013.04
2019-02-17T10:04:44.551Z,1013.04
2019-02-17T10:05:44.595Z,1013.07
2019-02-17T10:06:44.519Z,1013.05
2019-02-17T10:07:44.518Z,1013.07
2019-02-17T10:08:44.752Z,1013.06
2019-02-17T10:09:44.525Z,1013.07
2019-02-17T10:10:44.572Z,1013.07
2019-02-17T10:11:44.509Z,1013.05
2019-02-17T10:12:44.476Z,1013.05
2019-02-17T10:13:44.492Z,1013.05
2019-02-17T10:14:44.461Z,1013.03
2019-02-17T10:15:44.466Z,1013.02
2019-02-17T10:16:44.452Z,1013.00
2019-02-17T10:17:44.482Z,1013.01
2019-02-17T10:18:44.451Z,1012.99
2019-02-17T10:19:44.417Z,1013.01
2019-02-17T10:20:44.422Z,1013.05
2019-02-17T10:21:44.472Z,1013.02
2019-02-17T10:22:44.417Z,1013.00
2019-02-17T10:23:44.394Z,1012.99
2019-02-17T10:24:44.414Z,1013.00
2019-02-17T10:25:44.394Z,1012.98
2019-02-17T10:26:44.367Z,1012.97
2019-02-17T10:27:44.457Z,1012.97
2019-02-17T10:28:44.363Z,1013.00
2019-02-17T10:29:44.349Z,1012.98
2019-02-17T10:30:44.341Z,1012.98
2019-02-17T10:31:44.349Z,1012.99
2019-02-17T10:32:44.320Z,1012.98
2019-02-17T10:33:44.320Z,1013.00
2019-02-17T10:34:44.323Z,1013.00
2019-02-17T10:35:44.316Z,1013.01
2019-02-17T10:36:44.290Z,1013.01
2019-02-17T10:37:44.297Z,1013.02
2019-02-17T10:38:44.277Z,1013.00
2019-02-17T10:39:44.277Z,1013.00
2019-02-17T10:40:44.262Z,1012.96
2019-02-17T10:41:44.279Z,1012.96
2019-02-17T10:42:44.286Z,1012.94
2019-02-17T10:43:44.272Z,1012.96
2019-02-17T10:44:44.273Z,1012.96
2019-02-17T10:45:44.233Z,1012.91
2019-02-17T10:46:44.224Z,1012.93
2019-02-17T10:47:44.249Z,1012.94
2019-02-17T10:48:44.209Z,1012.91
2019-02-17T10:49:44.219Z,1012.90
2019-02-17T10:50:44.231Z,1012.90
2019-02-17T10:51:44.208Z,1012.90
2019-02-17T10:52:44.193Z,1012.86
2019-02-17T10:53:44.184Z,1012.88
2019-02-17T10:54:44.172Z,1012.86
2019-02-17T10:55:44.160Z,1012.84
2019-02-17T10:56:44.149Z,1012.82
2019-02-17T10:57:44.147Z,1012.82
2019-02-17T10:58:44.196Z,1012.78
2019-02-17T10:59:44.149Z,1012.80
2019-02-17T11:00:44.160Z,1012.74
2019-02-17T11:01:44.120Z,1012.75
2019-02-17T11:02:46.987Z,1012.76
2019-02-17T11:03:44.116Z,1012.74
2019-02-17T11:04:44.109Z,1012.71
2019-02-17T11:05:44.087Z,1012.69
2019-02-17T11:06:44.107Z,1012.67
2019-02-17T11:07:44.109Z,1012.64
2019-02-17T11:08:44.095Z,1012.66
2019-02-17T11:09:44.077Z,1012.60
2019-02-17T11:10:44.087Z,1012.58
2019-02-17T11:11:44.053Z,1012.56
2019-02-17T11:12:44.077Z,1012.54
2019-02-17T11:13:44.042Z,1012.50
2019-02-17T11:14:44.034Z,1012.51
2019-02-17T11:15:44.054Z,1012.47
2019-02-17T11:16:44.018Z,1012.45
2019-02-17T11:17:44.013Z,1012.43
2019-02-17T11:18:44.031Z,1012.39
2019-02-17T11:19:44.074Z,1012.39
2019-02-17T11:20:44.008Z,1012.38
2019-02-17T11:21:44.016Z,1012.41
2019-02-17T11:22:43.997Z,1012.36
2019-02-17T11:23:44.032Z,1012.35
2019-02-17T11:24:44.004Z,1012.37
2019-02-17T11:25:44.003Z,1012.34
2019-02-17T11:26:43.960Z,1012.35
2019-02-17T11:27:43.956Z,1012.33
2019-02-17T11:28:43.974Z,1012.30
2019-02-17T11:29:43.956Z,1012.27
2019-02-17T11:30:43.952Z,1012.21
2019-02-17T11:31:43.955Z,1012.22
2019-02-17T11:32:43.918Z,1012.22
2019-02-17T11:33:43.965Z,1012.20
2019-02-17T11:34:43.908Z,1012.20
2019-02-17T11:35:43.901Z,1012.16
2019-02-17T11:36:43.903Z,1012.14
2019-02-17T11:37:45.198Z,1012.16
2019-02-17T11:38:43.896Z,1012.14
2019-02-17T11:39:43.917Z,1012.15
2019-02-17T11:40:43.904Z,1012.16
2019-02-17T11:41:43.867Z,1012.12
2019-02-17T11:42:43.895Z,1012.09
2019-02-17T11:43:43.856Z,1012.07
2019-02-17T11:44:43.851Z,1012.04
2019-02-17T11:45:43.843Z,1012.04
2019-02-17T11:46:43.849Z,1012.01
2019-02-17T11:47:43.852Z,1012.00
2019-02-17T11:48:43.829Z,1012.00
2019-02-17T11:49:43.825Z,1011.96
2019-02-17T11:50:43.837Z,1011.95
2019-02-17T11:53:23.609Z,1011.93
2019-02-17T11:54:23.565Z,1011.89
2019-02-17T11:55:23.596Z,1011.93
2019-02-17T11:56:23.564Z,1011.90
2019-02-17T11:57:23.564Z,1011.89
2019-02-17T11:58:23.546Z,1011.88
2019-02-17T11:59:23.547Z,1011.85
2019-02-17T12:00:23.570Z,1011.84
2019-02-17T12:01:23.546Z,1011.77
2019-02-17T12:02:25.301Z,1011.81
2019-02-17T12:03:23.530Z,1011.79
2019-02-17T12:04:23.513Z,1011.77
2019-02-17T12:05:23.519Z,1011.78
2019-02-17T12:06:23.564Z,1011.77
2019-02-17T12:07:23.538Z,1011.76
2019-02-17T12:08:23.610Z,1011.73
2019-02-17T12:09:23.539Z,1011.75
2019-02-17T12:10:23.502Z,1011.72
2019-02-17T12:11:23.500Z,1011.70
2019-02-17T12:12:23.474Z,1011.67
2019-02-17T12:13:23.503Z,1011.62
2019-02-17T12:14:23.475Z,1011.64
2019-02-17T12:15:23.466Z,1011.61
2019-02-17T12:16:23.490Z,1011.56
2019-02-17T12:17:23.446Z,1011.57
2019-02-17T12:18:23.445Z,1011.56
2019-02-17T12:19:23.608Z,1011.52
2019-02-17T12:20:23.428Z,1011.51
2019-02-17T12:21:23.446Z,1011.48
2019-02-17T12:22:23.458Z,1011.50
2019-02-17T12:23:23.432Z,1011.46
2019-02-17T12:24:23.423Z,1011.47
2019-02-17T12:25:23.408Z,1011.43
2019-02-17T12:26:23.406Z,1011.41
2019-02-17T12:27:23.440Z,1011.36
2019-02-17T12:28:23.429Z,1011.38